Terminal Aerodrome Forecast
Issued by NWS Jacksonville, FL

Home | Current Version | Previous Version | Text Only | Print | Product List | Glossary On
Versions: 1 2 3 4 5 6 7 8 9 10 11 12 13 14 15 16 17
000
FTUS42 KJAX 182300
TAFGNV
TAF
KGNV 182331Z 1900/1924 00000KT P6SM FEW100 BKN200
     FM190900 00000KT 5SM BR FEW100 BKN200
     FM191500 VRB04KT P6SM FEW050 BKN200=

USA.gov is the U.S. government's official web portal to all federal, state and local government web resources and services.